Kakushu Maru — JG5688 — position and weather

sailwx.info

Track history (hours):
 
Tides and Currents Weather Stations Pressure Air Temp Water Temp Dewpoint Dewpoint Depression Visibility Wind Speed Wind Dir Waves Ship Positions

Kakushu Maru

Last reported at 2017-May-17 19:57 UTC. Time now 2017-May-24 00:35 UTC.
Position N 34°33' E 134°45'.

Length 105 m; draft 4.9 m.

Type: Tanker. MMSI: 431101016.

Date/timePositionNaut miles runAvg speedWind from/ knotsBaromVisibWave heightAir tempDewpointWater temp
2017-May-17 19:57N 34°33' E 134°45'714.7
2017-May-17 19:29N 34°35' E 134°53'714.1
2017-May-17 19:00N 34°37' E 135°01'611.8
2017-May-17 18:30N 34°33' E 135°05'714.7
2017-May-17 18:00N 34°26' E 135°03'914.2
2017-May-17 17:24N 34°18' E 134°59'614.9
2017-May-17 17:00N 34°12' E 134°59'714.4
2017-May-17 16:30N 34°05' E 134°60'814.4
2017-May-17 15:57N 33°57' E 135°01'23812.0
2017-May-16 20:13N 35°05' E 139°37'314.3
2017-May-16 19:59N 35°06' E 139°41'713.3
2017-May-16 19:29N 35°11' E 139°45'611.9
2017-May-16 19:00N 35°17' E 139°45'612.8
2017-May-16 18:30N 35°23' E 139°42'714.0
2017-May-16 18:01N 35°28' E 139°49'713.8
2017-May-16 17:30N 35°31' E 139°56'510.6
2017-May-16 17:00N 35°31' E 140°03'0 0.0
2017-May-16 06:52N 35°31' E 140°02'1 3.1
2017-May-16 06:30N 35°32' E 140°02'0 0.1
2017-May-16 05:54N 35°32' E 140°02'1 2.1
2017-May-16 05:24N 35°33' E 140°01'0 0.2
2017-May-16 05:00N 35°33' E 140°01'0 0.1
2017-May-16 04:27N 35°33' E 140°01'0 0.0
2017-May-16 04:00N 35°33' E 140°01'0 0.0
2017-May-16 03:27N 35°33' E 140°01'0 0.0
2017-May-16 03:00N 35°33' E 140°01'0 0.0
2017-May-16 02:30N 35°33' E 140°01'0 0.0
2017-May-16 02:00N 35°33' E 140°01'0 0.0
2017-May-16 01:30N 35°33' E 140°01'0 0.0
2017-May-16 01:00N 35°33' E 140°01'0 0.0
2017-May-16 00:30N 35°33' E 140°01'0 0.0
2017-May-15 23:54N 35°33' E 140°01'0 0.1
2017-May-15 23:30N 35°33' E 140°01'0 0.0
2017-May-15 23:00N 35°33' E 140°01'0 0.1
2017-May-15 22:30N 35°33' E 140°01'0 0.0
2017-May-15 22:00N 35°33' E 140°01'0 0.1
2017-May-15 21:30N 35°33' E 140°01'0 0.0
2017-May-15 21:00N 35°33' E 140°01'0 0.0
2017-May-15 20:30N 35°33' E 140°01'0 0.0
2017-May-15 20:00N 35°33' E 140°01'0 0.0
2017-May-15 19:30N 35°33' E 140°01'0 0.0
2017-May-15 19:00N 35°33' E 140°01'0 0.0
2017-May-15 18:30N 35°33' E 140°01'0 0.0
2017-May-15 18:00N 35°33' E 140°01'0 0.0
2017-May-15 17:30N 35°33' E 140°01'0 0.0
2017-May-15 17:00N 35°33' E 140°01'0 0.1
2017-May-15 16:30N 35°33' E 140°01'0 0.0
2017-May-15 16:00N 35°33' E 140°01'0 0.0
2017-May-15 15:30N 35°33' E 140°01'0 0.0
2017-May-15 15:00N 35°33' E 140°01'0 0.0
2017-May-15 14:00N 35°33' E 140°01'0 0.0
2017-May-15 13:30N 35°33' E 140°01'0 0.0
2017-May-15 13:00N 35°33' E 140°01'0 0.0
2017-May-15 12:30N 35°33' E 140°01'0 0.0
2017-May-15 12:00N 35°33' E 140°01'0 0.0
2017-May-15 11:30N 35°33' E 140°01'0 0.0
2017-May-15 10:57N 35°33' E 140°01'0 0.1
2017-May-15 10:21N 35°33' E 140°01'0 0.0
2017-May-15 09:57N 35°33' E 140°01'0 0.0
2017-May-15 09:30N 35°33' E 140°01'0 0.0
2017-May-15 09:00N 35°33' E 140°01'0 0.0
2017-May-15 08:30N 35°33' E 140°01'0 0.0
2017-May-15 08:00N 35°33' E 140°01'0 0.2
2017-May-15 07:30N 35°33' E 140°01'5 9.4
2017-May-15 07:00N 35°31' E 139°56'713.8
2017-May-15 06:30N 35°27' E 139°49'612.9
2017-May-15 06:00N 35°21' E 139°45'611.8
2017-May-15 05:31N 35°15' E 139°47'612.8
2017-May-15 05:00N 35°09' E 139°46'612.8
2017-May-15 04:30N 35°04' E 139°42'713.5
2017-May-15 04:00N 34°60' E 139°35'813.6
2017-May-15 03:25N 34°55' E 139°27'22711.4
2017-May-14 07:29N 33°58' E 135°00'613.1
2017-May-14 06:59N 34°04' E 135°02'510.4
2017-May-14 06:30N 34°07' E 135°07'1 0.1
2017-May-13 23:49N 34°07' E 135°07'0 0.7
2017-May-13 23:30N 34°07' E 135°07'4 8.7
2017-May-13 23:00N 34°11' E 135°04'612.6
2017-May-13 22:30N 34°16' E 134°59'713.1
2017-May-13 21:58N 34°22' E 135°01'714.9
2017-May-13 21:30N 34°26' E 135°08'713.9
2017-May-13 21:00N 34°30' E 135°15'2 3.5
2017-May-13 20:26N 34°31' E 135°17'0 0.0
2017-May-13 19:50N 34°31' E 135°17'0 0.0
2017-May-13 19:20N 34°31' E 135°17'0 0.0
2017-May-13 18:56N 34°31' E 135°17'0 0.0
2017-May-13 18:26N 34°31' E 135°17'0 0.0
2017-May-13 17:56N 34°31' E 135°17'0 0.0
2017-May-13 17:26N 34°31' E 135°17'0 0.0
2017-May-13 16:56N 34°31' E 135°17'0 0.0
2017-May-13 16:20N 34°31' E 135°17'0 0.0
2017-May-13 15:50N 34°31' E 135°17'0 0.0
2017-May-13 15:26N 34°31' E 135°17'0 0.0
2017-May-13 14:56N 34°31' E 135°17'0 0.0
2017-May-13 14:20N 34°31' E 135°17'0 0.0
2017-May-13 13:26N 34°31' E 135°17'0 0.1
2017-May-13 12:56N 34°31' E 135°17'0 0.0
2017-May-13 12:14N 34°31' E 135°17'0 0.0
2017-May-13 11:02N 34°31' E 135°17'0 0.0
2017-May-13 10:56N 34°31' E 135°17'1 2.3
2017-May-13 10:30N 34°31' E 135°18'510.0
2017-May-13 10:00N 34°32' E 135°24'0 0.0
2017-May-12 23:01N 34°32' E 135°25'0 1.8
2017-May-12 23:00N 34°32' E 135°25'2 4.8
2017-May-12 22:30N 34°33' E 135°22'3 5.4
2017-May-12 21:57N 34°32' E 135°19'0 0.0
2017-May-12 21:21N 34°32' E 135°19'0 0.0
2017-May-12 20:57N 34°32' E 135°19'0 0.0
2017-May-12 20:27N 34°32' E 135°19'0 0.0
2017-May-12 19:57N 34°32' E 135°19'0 0.0
2017-May-12 19:27N 34°32' E 135°19'0 0.0
2017-May-12 18:57N 34°32' E 135°19'0 0.0
2017-May-12 18:27N 34°32' E 135°19'0 0.0
2017-May-12 17:57N 34°32' E 135°19'0 0.0
2017-May-12 17:27N 34°32' E 135°19'0 0.1
2017-May-12 16:57N 34°32' E 135°19'2 3.7
2017-May-12 16:31N 34°31' E 135°17'612.4
2017-May-12 16:00N 34°27' E 135°11'713.6
2017-May-12 15:30N 34°23' E 135°04'713.2
2017-May-12 15:00N 34°18' E 134°59'613.1
2017-May-12 14:30N 34°12' E 135°03'6 0.8
2017-May-12 07:24N 34°07' E 135°07'2 5.9
2017-May-12 07:00N 34°09' E 135°05'612.5
2017-May-12 06:30N 34°14' E 135°00'713.3
2017-May-12 05:59N 34°20' E 134°59'613.4
2017-May-12 05:30N 34°27' E 135°01'713.6
2017-May-12 05:00N 34°33' E 135°03'  
2017-May-08 08:36N 34°33' E 134°47'215.0
2017-May-08 08:29N 34°34' E 134°49'715.4
2017-May-08 08:00N 34°37' E 134°57'713.2
2017-May-08 07:30N 34°35' E 135°05'713.7
2017-May-08 07:00N 34°29' E 135°03'714.4
2017-May-08 06:30N 34°22' E 135°01'713.3
2017-May-08 06:00N 34°15' E 134°59'612.9
2017-May-08 05:30N 34°09' E 134°59'714.2
2017-May-08 04:59N 34°01' E 134°59'  
Track history (hours):
 
Tides and Currents Weather Stations Pressure Air Temp Water Temp Dewpoint Dewpoint Depression Visibility Wind Speed Wind Dir Waves Ship Positions

Kakushu Maru

Last reported at 2017-May-17 19:57 UTC. Time now 2017-May-24 00:35 UTC.
Position N 34°33' E 134°45'.

Length 105 m; draft 4.9 m.

Type: Tanker. MMSI: 431101016.

Date/timePositionNaut miles runAvg speedWind from/ knotsBaromVisibWave heightAir tempDewpointWater temp
2017-May-17 19:57N 34°33' E 134°45'714.7
2017-May-17 19:29N 34°35' E 134°53'714.1
2017-May-17 19:00N 34°37' E 135°01'611.8
2017-May-17 18:30N 34°33' E 135°05'714.7
2017-May-17 18:00N 34°26' E 135°03'914.2
2017-May-17 17:24N 34°18' E 134°59'614.9
2017-May-17 17:00N 34°12' E 134°59'714.4
2017-May-17 16:30N 34°05' E 134°60'814.4
2017-May-17 15:57N 33°57' E 135°01'23812.0
2017-May-16 20:13N 35°05' E 139°37'314.3
2017-May-16 19:59N 35°06' E 139°41'713.3
2017-May-16 19:29N 35°11' E 139°45'611.9
2017-May-16 19:00N 35°17' E 139°45'612.8
2017-May-16 18:30N 35°23' E 139°42'714.0
2017-May-16 18:01N 35°28' E 139°49'713.8
2017-May-16 17:30N 35°31' E 139°56'510.6
2017-May-16 17:00N 35°31' E 140°03'0 0.0
2017-May-16 06:52N 35°31' E 140°02'1 3.1
2017-May-16 06:30N 35°32' E 140°02'0 0.1
2017-May-16 05:54N 35°32' E 140°02'1 2.1
2017-May-16 05:24N 35°33' E 140°01'0 0.2
2017-May-16 05:00N 35°33' E 140°01'0 0.1
2017-May-16 04:27N 35°33' E 140°01'0 0.0
2017-May-16 04:00N 35°33' E 140°01'0 0.0
2017-May-16 03:27N 35°33' E 140°01'0 0.0
2017-May-16 03:00N 35°33' E 140°01'0 0.0
2017-May-16 02:30N 35°33' E 140°01'0 0.0
2017-May-16 02:00N 35°33' E 140°01'0 0.0
2017-May-16 01:30N 35°33' E 140°01'0 0.0
2017-May-16 01:00N 35°33' E 140°01'0 0.0
2017-May-16 00:30N 35°33' E 140°01'0 0.0
2017-May-15 23:54N 35°33' E 140°01'0 0.1
2017-May-15 23:30N 35°33' E 140°01'0 0.0
2017-May-15 23:00N 35°33' E 140°01'0 0.1
2017-May-15 22:30N 35°33' E 140°01'0 0.0
2017-May-15 22:00N 35°33' E 140°01'0 0.1
2017-May-15 21:30N 35°33' E 140°01'0 0.0
2017-May-15 21:00N 35°33' E 140°01'0 0.0
2017-May-15 20:30N 35°33' E 140°01'0 0.0
2017-May-15 20:00N 35°33' E 140°01'0 0.0
2017-May-15 19:30N 35°33' E 140°01'0 0.0
2017-May-15 19:00N 35°33' E 140°01'0 0.0
2017-May-15 18:30N 35°33' E 140°01'0 0.0
2017-May-15 18:00N 35°33' E 140°01'0 0.0
2017-May-15 17:30N 35°33' E 140°01'0 0.0
2017-May-15 17:00N 35°33' E 140°01'0 0.1
2017-May-15 16:30N 35°33' E 140°01'0 0.0
2017-May-15 16:00N 35°33' E 140°01'0 0.0
2017-May-15 15:30N 35°33' E 140°01'0 0.0
2017-May-15 15:00N 35°33' E 140°01'0 0.0
2017-May-15 14:00N 35°33' E 140°01'0 0.0
2017-May-15 13:30N 35°33' E 140°01'0 0.0
2017-May-15 13:00N 35°33' E 140°01'0 0.0
2017-May-15 12:30N 35°33' E 140°01'0 0.0
2017-May-15 12:00N 35°33' E 140°01'0 0.0
2017-May-15 11:30N 35°33' E 140°01'0 0.0
2017-May-15 10:57N 35°33' E 140°01'0 0.1
2017-May-15 10:21N 35°33' E 140°01'0 0.0
2017-May-15 09:57N 35°33' E 140°01'0 0.0
2017-May-15 09:30N 35°33' E 140°01'0 0.0
2017-May-15 09:00N 35°33' E 140°01'0 0.0
2017-May-15 08:30N 35°33' E 140°01'0 0.0
2017-May-15 08:00N 35°33' E 140°01'0 0.2
2017-May-15 07:30N 35°33' E 140°01'5 9.4
2017-May-15 07:00N 35°31' E 139°56'713.8
2017-May-15 06:30N 35°27' E 139°49'612.9
2017-May-15 06:00N 35°21' E 139°45'611.8
2017-May-15 05:31N 35°15' E 139°47'612.8
2017-May-15 05:00N 35°09' E 139°46'612.8
2017-May-15 04:30N 35°04' E 139°42'713.5
2017-May-15 04:00N 34°60' E 139°35'813.6
2017-May-15 03:25N 34°55' E 139°27'22711.4
2017-May-14 07:29N 33°58' E 135°00'613.1
2017-May-14 06:59N 34°04' E 135°02'510.4
2017-May-14 06:30N 34°07' E 135°07'1 0.1
2017-May-13 23:49N 34°07' E 135°07'0 0.7
2017-May-13 23:30N 34°07' E 135°07'4 8.7
2017-May-13 23:00N 34°11' E 135°04'612.6
2017-May-13 22:30N 34°16' E 134°59'713.1
2017-May-13 21:58N 34°22' E 135°01'714.9
2017-May-13 21:30N 34°26' E 135°08'713.9
2017-May-13 21:00N 34°30' E 135°15'2 3.5
2017-May-13 20:26N 34°31' E 135°17'0 0.0
2017-May-13 19:50N 34°31' E 135°17'0 0.0
2017-May-13 19:20N 34°31' E 135°17'0 0.0
2017-May-13 18:56N 34°31' E 135°17'0 0.0
2017-May-13 18:26N 34°31' E 135°17'0 0.0
2017-May-13 17:56N 34°31' E 135°17'0 0.0
2017-May-13 17:26N 34°31' E 135°17'0 0.0
2017-May-13 16:56N 34°31' E 135°17'0 0.0
2017-May-13 16:20N 34°31' E 135°17'0 0.0
2017-May-13 15:50N 34°31' E 135°17'0 0.0
2017-May-13 15:26N 34°31' E 135°17'0 0.0
2017-May-13 14:56N 34°31' E 135°17'0 0.0
2017-May-13 14:20N 34°31' E 135°17'0 0.0
2017-May-13 13:26N 34°31' E 135°17'0 0.1
2017-May-13 12:56N 34°31' E 135°17'0 0.0
2017-May-13 12:14N 34°31' E 135°17'0 0.0
2017-May-13 11:02N 34°31' E 135°17'0 0.0
2017-May-13 10:56N 34°31' E 135°17'1 2.3
2017-May-13 10:30N 34°31' E 135°18'510.0
2017-May-13 10:00N 34°32' E 135°24'0 0.0
2017-May-12 23:01N 34°32' E 135°25'0 1.8
2017-May-12 23:00N 34°32' E 135°25'2 4.8
2017-May-12 22:30N 34°33' E 135°22'3 5.4
2017-May-12 21:57N 34°32' E 135°19'0 0.0
2017-May-12 21:21N 34°32' E 135°19'0 0.0
2017-May-12 20:57N 34°32' E 135°19'0 0.0
2017-May-12 20:27N 34°32' E 135°19'0 0.0
2017-May-12 19:57N 34°32' E 135°19'0 0.0
2017-May-12 19:27N 34°32' E 135°19'0 0.0
2017-May-12 18:57N 34°32' E 135°19'0 0.0
2017-May-12 18:27N 34°32' E 135°19'0 0.0
2017-May-12 17:57N 34°32' E 135°19'0 0.0
2017-May-12 17:27N 34°32' E 135°19'0 0.1
2017-May-12 16:57N 34°32' E 135°19'2 3.7
2017-May-12 16:31N 34°31' E 135°17'612.4
2017-May-12 16:00N 34°27' E 135°11'713.6
2017-May-12 15:30N 34°23' E 135°04'713.2
2017-May-12 15:00N 34°18' E 134°59'613.1
2017-May-12 14:30N 34°12' E 135°03'6 0.8
2017-May-12 07:24N 34°07' E 135°07'2 5.9
2017-May-12 07:00N 34°09' E 135°05'612.5
2017-May-12 06:30N 34°14' E 135°00'713.3
2017-May-12 05:59N 34°20' E 134°59'613.4
2017-May-12 05:30N 34°27' E 135°01'713.6
2017-May-12 05:00N 34°33' E 135°03'  
2017-May-08 08:36N 34°33' E 134°47'215.0
2017-May-08 08:29N 34°34' E 134°49'715.4
2017-May-08 08:00N 34°37' E 134°57'713.2
2017-May-08 07:30N 34°35' E 135°05'713.7
2017-May-08 07:00N 34°29' E 135°03'714.4
2017-May-08 06:30N 34°22' E 135°01'713.3
2017-May-08 06:00N 34°15' E 134°59'612.9
2017-May-08 05:30N 34°09' E 134°59'714.2
2017-May-08 04:59N 34°01' E 134°59'  

Dump ship's entire track history